createdAt,value
2023-05-17T00:01:45.622Z,96.50
2023-05-17T00:04:12.074Z,97.09
2023-05-17T00:06:38.487Z,97.73
2023-05-17T00:09:04.922Z,97.99
2023-05-17T00:11:31.605Z,98.86
2023-05-17T00:13:58.012Z,99.60
2023-05-17T00:16:24.410Z,100.00
2023-05-17T00:18:50.910Z,100.00
2023-05-17T00:21:17.364Z,100.00
2023-05-17T00:23:43.691Z,100.00
2023-05-17T00:26:10.051Z,99.47
2023-05-17T00:28:36.394Z,99.18
2023-05-17T00:31:02.887Z,98.99
2023-05-17T00:33:29.285Z,99.10
2023-05-17T00:35:55.688Z,98.89
2023-05-17T00:38:22.055Z,98.73
2023-05-17T00:40:50.282Z,98.28
2023-05-17T00:43:16.668Z,99.09
2023-05-17T00:45:43.052Z,100.00
2023-05-17T00:48:09.620Z,100.00
2023-05-17T00:50:36.169Z,100.00
2023-05-17T00:53:02.803Z,100.00
2023-05-17T00:55:30.414Z,100.00
2023-05-17T00:57:57.034Z,100.00
2023-05-17T01:00:23.802Z,100.00
2023-05-17T01:02:50.813Z,100.00
2023-05-17T01:05:17.305Z,100.00
2023-05-17T01:07:43.658Z,100.00
2023-05-17T01:10:10.526Z,100.00
2023-05-17T01:12:55.602Z,100.00
2023-05-17T01:15:28.210Z,100.00
2023-05-17T01:18:12.310Z,100.00
2023-05-17T01:20:41.857Z,100.00
2023-05-17T01:23:35.965Z,100.00
2023-05-17T01:26:18.927Z,100.00
2023-05-17T01:28:49.430Z,100.00
2023-05-17T01:31:17.077Z,100.00
2023-05-17T01:33:43.684Z,100.00
2023-05-17T01:36:10.205Z,100.00
2023-05-17T01:38:36.720Z,100.00
2023-05-17T01:41:38.723Z,100.00
2023-05-17T01:44:13.445Z,100.00
2023-05-17T01:46:41.668Z,100.00
2023-05-17T01:49:35.270Z,100.00
2023-05-17T01:52:20.617Z,100.00
2023-05-17T01:55:01.370Z,100.00
2023-05-17T01:57:32.439Z,100.00
2023-05-17T02:00:02.050Z,100.00
2023-05-17T02:02:28.614Z,100.00
2023-05-17T02:04:55.271Z,100.00
2023-05-17T02:07:21.836Z,100.00
2023-05-17T02:09:48.224Z,100.00
2023-05-17T02:12:14.621Z,100.00
2023-05-17T02:14:41.345Z,100.00
2023-05-17T02:17:07.753Z,100.00
2023-05-17T02:19:34.437Z,100.00
2023-05-17T02:22:00.981Z,100.00
2023-05-17T02:24:27.629Z,100.00
2023-05-17T02:26:53.994Z,100.00
2023-05-17T02:29:20.391Z,100.00
2023-05-17T02:31:46.848Z,100.00
2023-05-17T02:34:15.440Z,100.00
2023-05-17T02:36:44.500Z,100.00
2023-05-17T02:39:10.902Z,100.00
2023-05-17T02:41:37.238Z,100.00
2023-05-17T02:44:04.197Z,100.00
2023-05-17T02:46:30.604Z,100.00
2023-05-17T02:48:56.950Z,100.00
2023-05-17T02:51:23.434Z,100.00
2023-05-17T02:53:49.751Z,100.00
2023-05-17T02:56:16.140Z,100.00
2023-05-17T02:58:44.602Z,100.00
2023-05-17T03:01:10.983Z,100.00
2023-05-17T03:03:37.538Z,100.00
2023-05-17T03:06:04.860Z,100.00
2023-05-17T03:08:31.517Z,100.00
2023-05-17T03:10:57.908Z,100.00
2023-05-17T03:13:24.246Z,100.00
2023-05-17T03:15:50.758Z,100.00
2023-05-17T03:18:17.294Z,100.00
2023-05-17T03:20:43.768Z,100.00
2023-05-17T03:23:10.282Z,100.00
2023-05-17T03:25:36.609Z,100.00
2023-05-17T03:28:03.107Z,100.00
2023-05-17T03:30:29.569Z,100.00
2023-05-17T03:32:56.077Z,100.00
2023-05-17T03:35:22.571Z,100.00
2023-05-17T03:37:49.009Z,100.00
2023-05-17T03:40:15.647Z,100.00
2023-05-17T03:42:41.970Z,100.00
2023-05-17T03:45:08.815Z,100.00
2023-05-17T03:47:35.250Z,100.00
2023-05-17T03:50:01.611Z,100.00
2023-05-17T03:52:28.027Z,100.00
2023-05-17T03:54:54.389Z,100.00
2023-05-17T03:57:21.930Z,100.00
2023-05-17T03:59:48.500Z,100.00
2023-05-17T04:02:16.515Z,100.00
2023-05-17T04:04:49.901Z,100.00
2023-05-17T04:07:17.054Z,100.00
2023-05-17T04:09:43.490Z,100.00
2023-05-17T04:12:10.800Z,100.00
2023-05-17T04:14:38.504Z,100.00
2023-05-17T04:17:05.179Z,100.00
2023-05-17T04:19:31.803Z,100.00
2023-05-17T04:21:58.387Z,100.00
2023-05-17T04:24:24.892Z,100.00
2023-05-17T04:26:51.323Z,100.00
2023-05-17T04:29:17.715Z,100.00
2023-05-17T04:31:44.101Z,100.00
2023-05-17T04:34:10.529Z,100.00
2023-05-17T04:36:36.968Z,100.00
2023-05-17T04:39:05.530Z,100.00
2023-05-17T04:41:33.048Z,100.00
2023-05-17T04:43:59.429Z,100.00
2023-05-17T04:46:26.612Z,100.00
2023-05-17T04:48:53.408Z,100.00
2023-05-17T04:51:19.964Z,100.00
2023-05-17T04:53:46.395Z,100.00
2023-05-17T04:56:12.781Z,100.00
2023-05-17T04:58:39.109Z,100.00
2023-05-17T05:01:05.958Z,100.00
2023-05-17T05:03:32.420Z,100.00
2023-05-17T05:05:58.925Z,100.00
2023-05-17T05:08:25.357Z,100.00
2023-05-17T05:10:51.760Z,99.59
2023-05-17T05:13:18.172Z,99.26
2023-05-17T05:15:44.728Z,98.37
2023-05-17T05:18:11.244Z,97.59
2023-05-17T05:20:37.637Z,96.97
2023-05-17T05:23:05.771Z,96.15
2023-05-17T05:25:32.868Z,95.56
2023-05-17T05:27:59.221Z,93.61
2023-05-17T05:30:25.800Z,92.33
2023-05-17T05:32:52.486Z,90.98
2023-05-17T05:35:19.114Z,89.52
2023-05-17T05:37:46.000Z,88.88
2023-05-17T05:40:12.869Z,88.76
2023-05-17T05:42:39.328Z,88.15
2023-05-17T05:45:06.142Z,87.84
2023-05-17T05:47:33.028Z,86.60
2023-05-17T05:49:59.618Z,85.56
2023-05-17T05:52:26.001Z,84.63
2023-05-17T05:54:52.385Z,85.95
2023-05-17T05:57:18.811Z,86.37
2023-05-17T05:59:45.357Z,86.40
2023-05-17T06:02:12.057Z,87.28
2023-05-17T06:04:45.300Z,85.81
2023-05-17T06:07:13.471Z,85.90
2023-05-17T06:09:39.997Z,85.21
2023-05-17T06:12:06.468Z,85.89
2023-05-17T06:14:32.901Z,85.32
2023-05-17T06:16:59.289Z,84.73
2023-05-17T06:19:25.733Z,82.65
2023-05-17T06:21:52.204Z,78.31
2023-05-17T06:24:18.591Z,75.29
2023-05-17T06:26:45.057Z,72.93
2023-05-17T06:29:11.443Z,72.17
2023-05-17T06:31:37.822Z,72.59
2023-05-17T06:34:04.428Z,72.63
2023-05-17T06:36:32.394Z,72.74
2023-05-17T06:38:59.332Z,72.00
2023-05-17T06:41:25.730Z,72.88
2023-05-17T06:43:52.149Z,74.43
2023-05-17T06:46:18.545Z,74.65
2023-05-17T06:48:45.001Z,72.88
2023-05-17T06:51:11.582Z,72.73
2023-05-17T06:53:37.941Z,71.29
2023-05-17T06:56:04.513Z,68.44
2023-05-17T06:58:30.919Z,63.64
2023-05-17T07:00:57.387Z,61.11
2023-05-17T07:03:23.948Z,53.08
2023-05-17T07:05:50.565Z,47.84
2023-05-17T07:08:16.978Z,48.65
2023-05-17T07:10:43.402Z,52.08
2023-05-17T07:13:09.805Z,55.24
2023-05-17T07:15:36.169Z,55.63
2023-05-17T07:18:02.893Z,57.85
2023-05-17T07:20:29.431Z,56.77
2023-05-17T07:22:56.281Z,52.20
2023-05-17T07:25:22.671Z,55.09
2023-05-17T07:27:49.125Z,55.24
2023-05-17T07:30:15.596Z,54.75
2023-05-17T07:32:42.101Z,49.01
2023-05-17T07:35:08.602Z,47.57
2023-05-17T07:37:34.936Z,42.81
2023-05-17T07:40:01.553Z,37.65
2023-05-17T07:42:27.960Z,38.25
2023-05-17T07:44:54.303Z,43.52
2023-05-17T07:47:20.853Z,46.20
2023-05-17T07:49:47.262Z,43.91
2023-05-17T07:52:13.630Z,43.46
2023-05-17T07:54:40.091Z,44.74
2023-05-17T07:57:06.472Z,47.31
2023-05-17T07:59:33.168Z,48.43
2023-05-17T08:01:59.496Z,46.84
2023-05-17T08:04:25.950Z,45.39
2023-05-17T08:06:54.681Z,43.86
2023-05-17T08:09:21.145Z,43.28
2023-05-17T08:11:47.860Z,42.38
2023-05-17T08:14:17.890Z,43.20
2023-05-17T08:16:46.198Z,44.87
2023-05-17T08:19:14.834Z,46.55
2023-05-17T08:21:42.265Z,45.58
2023-05-17T08:24:09.542Z,46.14
2023-05-17T08:26:36.053Z,46.03
2023-05-17T08:29:02.918Z,46.79
2023-05-17T08:31:29.499Z,48.17
2023-05-17T08:33:55.961Z,48.21
2023-05-17T08:36:22.539Z,48.89
2023-05-17T08:38:48.897Z,49.21
2023-05-17T08:41:15.278Z,49.21
2023-05-17T08:43:41.969Z,49.40
2023-05-17T08:46:09.901Z,49.99
2023-05-17T08:48:41.963Z,48.73
2023-05-17T08:51:12.123Z,49.27
2023-05-17T08:53:38.925Z,47.05
2023-05-17T08:56:06.975Z,46.54
2023-05-17T08:58:48.065Z,46.98
2023-05-17T09:01:25.984Z,46.12
2023-05-17T09:03:53.665Z,46.07
2023-05-17T09:06:21.732Z,46.96
2023-05-17T09:08:51.090Z,45.07
2023-05-17T09:11:26.159Z,42.61
2023-05-17T09:13:52.582Z,39.87
2023-05-17T09:16:21.174Z,37.71
2023-05-17T09:18:55.623Z,38.53
2023-05-17T09:21:23.688Z,38.90
2023-05-17T09:24:04.675Z,39.96
2023-05-17T09:26:43.213Z,41.49
2023-05-17T09:29:14.887Z,44.53
2023-05-17T09:31:41.917Z,44.67
2023-05-17T09:34:09.098Z,44.58
2023-05-17T09:36:37.754Z,44.95
2023-05-17T09:39:06.173Z,46.70
2023-05-17T09:41:34.233Z,46.20
2023-05-17T09:44:01.834Z,45.91
2023-05-17T09:46:28.974Z,46.01
2023-05-17T09:48:56.274Z,46.22
2023-05-17T09:51:37.034Z,45.66
2023-05-17T09:54:03.649Z,46.07
2023-05-17T09:56:31.267Z,46.61
2023-05-17T09:59:01.183Z,45.59
2023-05-17T10:01:29.628Z,43.77
2023-05-17T10:03:59.457Z,43.84
2023-05-17T10:06:39.213Z,43.82
2023-05-17T10:09:14.188Z,43.59
2023-05-17T10:11:45.824Z,43.29
2023-05-17T10:14:18.887Z,44.86
2023-05-17T10:16:45.715Z,44.32
2023-05-17T10:19:12.344Z,45.06
2023-05-17T10:21:39.941Z,44.30
2023-05-17T10:24:07.976Z,43.22
2023-05-17T10:26:35.755Z,42.60
2023-05-17T10:29:03.979Z,42.91
2023-05-17T10:31:33.086Z,42.04
2023-05-17T10:34:01.869Z,41.64
2023-05-17T10:36:28.476Z,41.27
2023-05-17T10:38:55.295Z,41.66
2023-05-17T10:41:24.285Z,39.78
2023-05-17T10:43:51.923Z,38.87
2023-05-17T10:46:21.290Z,37.63
2023-05-17T10:48:51.169Z,40.25
2023-05-17T10:51:31.387Z,41.49
2023-05-17T10:54:12.120Z,43.23
2023-05-17T10:56:47.376Z,44.13
2023-05-17T10:59:21.494Z,44.38
2023-05-17T11:02:14.063Z,44.38
2023-05-17T11:04:43.260Z,44.05
2023-05-17T11:07:19.192Z,43.43
2023-05-17T11:09:55.520Z,41.28
2023-05-17T11:12:40.819Z,40.08
2023-05-17T11:15:12.605Z,38.52
2023-05-17T11:17:54.468Z,37.10
2023-05-17T11:20:27.615Z,35.90
2023-05-17T11:23:00.083Z,37.09
2023-05-17T11:25:35.701Z,37.63
2023-05-17T11:28:10.181Z,35.86
2023-05-17T11:30:41.486Z,35.74
2023-05-17T11:33:17.220Z,34.71
2023-05-17T11:35:55.576Z,34.73
2023-05-17T11:38:24.370Z,35.77
2023-05-17T11:40:54.468Z,35.49
2023-05-17T11:43:25.754Z,36.27
2023-05-17T11:45:57.206Z,37.37
2023-05-17T11:48:26.040Z,37.14
2023-05-17T11:50:54.391Z,36.20
2023-05-17T11:53:21.476Z,36.71
2023-05-17T11:55:52.199Z,34.51
2023-05-17T11:58:23.682Z,34.43
2023-05-17T12:00:59.028Z,33.63
2023-05-17T12:03:29.891Z,33.59
2023-05-17T12:06:13.133Z,34.01
2023-05-17T12:08:43.076Z,33.14
2023-05-17T12:11:14.806Z,33.93
2023-05-17T12:13:42.552Z,33.76
2023-05-17T12:16:13.623Z,34.61
2023-05-17T12:18:42.582Z,33.16
2023-05-17T12:21:12.999Z,33.60
2023-05-17T12:23:41.253Z,33.81
2023-05-17T12:26:09.893Z,35.44
2023-05-17T12:28:38.725Z,34.20
2023-05-17T12:31:09.816Z,32.96
2023-05-17T12:33:39.849Z,34.21
2023-05-17T12:36:08.257Z,31.00
2023-05-17T12:38:36.322Z,33.04
2023-05-17T12:41:04.200Z,30.27
2023-05-17T12:43:33.764Z,31.02
2023-05-17T12:46:20.344Z,31.50
2023-05-17T12:48:50.849Z,32.71
2023-05-17T12:51:18.270Z,33.00
2023-05-17T12:53:52.447Z,32.36
2023-05-17T12:56:27.181Z,31.30
2023-05-17T12:59:09.988Z,31.46
2023-05-17T13:01:41.997Z,29.22
2023-05-17T13:04:08.473Z,28.39
2023-05-17T13:06:45.838Z,31.27
2023-05-17T13:09:12.553Z,32.42
2023-05-17T13:11:41.334Z,31.65
2023-05-17T13:14:09.085Z,30.96
2023-05-17T13:16:39.423Z,30.00
2023-05-17T13:19:15.913Z,28.04
2023-05-17T13:21:42.392Z,28.21
2023-05-17T13:24:09.942Z,27.42
2023-05-17T13:26:36.384Z,28.19
2023-05-17T13:29:03.018Z,28.97
2023-05-17T13:31:29.422Z,29.55
2023-05-17T13:33:56.311Z,29.40
2023-05-17T13:36:22.804Z,30.12
2023-05-17T13:38:49.226Z,30.99
2023-05-17T13:41:15.656Z,32.21
2023-05-17T13:43:42.025Z,31.62
2023-05-17T13:46:09.024Z,32.57
2023-05-17T13:48:35.461Z,32.85
2023-05-17T13:51:02.073Z,33.13
2023-05-17T13:53:28.668Z,30.75
2023-05-17T13:55:55.031Z,31.79
2023-05-17T13:58:21.560Z,28.47
2023-05-17T14:00:47.985Z,27.69
2023-05-17T14:03:14.742Z,28.17
2023-05-17T14:05:41.383Z,28.74
2023-05-17T14:08:08.856Z,30.68
2023-05-17T14:10:36.186Z,33.06
2023-05-17T14:13:02.712Z,34.56
2023-05-17T14:15:29.137Z,35.00
2023-05-17T14:17:56.002Z,32.58
2023-05-17T14:20:22.472Z,32.86
2023-05-17T14:22:48.839Z,32.00
2023-05-17T14:25:15.415Z,30.97
2023-05-17T14:27:42.470Z,29.40
2023-05-17T14:30:11.522Z,28.93
2023-05-17T14:32:39.312Z,27.95
2023-05-17T14:35:09.820Z,29.52
2023-05-17T14:37:36.290Z,28.75
2023-05-17T14:40:06.794Z,28.54
2023-05-17T14:42:33.714Z,28.80
2023-05-17T14:45:00.221Z,29.54
2023-05-17T14:47:26.922Z,29.61
2023-05-17T14:49:53.326Z,30.60
2023-05-17T14:52:19.958Z,32.17
2023-05-17T14:54:46.390Z,31.15
2023-05-17T14:57:13.527Z,31.81
2023-05-17T14:59:43.156Z,32.07
2023-05-17T15:02:10.818Z,32.80
2023-05-17T15:04:37.702Z,30.71
2023-05-17T15:07:04.434Z,30.66
2023-05-17T15:09:31.049Z,30.13
2023-05-17T15:11:57.573Z,31.17
2023-05-17T15:14:24.710Z,30.53
2023-05-17T15:16:52.813Z,31.53
2023-05-17T15:19:19.476Z,31.53
2023-05-17T15:21:46.535Z,31.77
2023-05-17T15:24:15.951Z,32.11
2023-05-17T15:26:44.349Z,31.54
2023-05-17T15:29:10.773Z,30.83
2023-05-17T15:31:37.212Z,30.97
2023-05-17T15:34:04.701Z,31.15
2023-05-17T15:36:31.533Z,31.15
2023-05-17T15:38:57.981Z,30.55
2023-05-17T15:41:29.869Z,31.28
2023-05-17T15:43:56.776Z,32.04
2023-05-17T15:46:23.223Z,33.08
2023-05-17T15:48:49.743Z,32.76
2023-05-17T15:51:16.417Z,33.77
2023-05-17T15:53:42.911Z,33.05
2023-05-17T15:56:10.290Z,32.20
2023-05-17T15:58:36.845Z,32.48
2023-05-17T16:01:04.653Z,32.09
2023-05-17T16:03:31.887Z,32.09
2023-05-17T16:05:58.487Z,29.25
2023-05-17T16:08:25.438Z,30.06
2023-05-17T16:10:51.901Z,32.41
2023-05-17T16:13:18.277Z,33.63
2023-05-17T16:15:44.638Z,34.41
2023-05-17T16:18:13.605Z,32.28
2023-05-17T16:20:43.123Z,34.51
2023-05-17T16:23:09.901Z,36.32
2023-05-17T16:25:36.586Z,36.36
2023-05-17T16:28:03.042Z,36.28
2023-05-17T16:30:29.445Z,36.27
2023-05-17T16:32:55.923Z,34.95
2023-05-17T16:35:22.512Z,35.10
2023-05-17T16:37:50.029Z,35.55
2023-05-17T16:40:16.826Z,34.40
2023-05-17T16:42:44.402Z,34.16
2023-05-17T16:45:14.454Z,34.54
2023-05-17T16:47:40.930Z,35.44
2023-05-17T16:50:07.785Z,35.18
2023-05-17T16:52:34.156Z,35.74
2023-05-17T16:55:03.291Z,35.19
2023-05-17T16:57:31.539Z,34.99
2023-05-17T17:00:00.314Z,34.54
2023-05-17T17:02:27.944Z,34.82
2023-05-17T17:04:54.935Z,34.41
2023-05-17T17:07:21.308Z,34.51
2023-05-17T17:09:47.668Z,34.33
2023-05-17T17:12:23.976Z,34.47
2023-05-17T17:14:51.521Z,34.42
2023-05-17T17:17:17.915Z,34.63
2023-05-17T17:19:44.309Z,34.94
2023-05-17T17:22:11.825Z,34.88
2023-05-17T17:24:38.548Z,34.62
2023-05-17T17:27:05.527Z,34.91
2023-05-17T17:29:33.888Z,34.46
2023-05-17T17:32:00.579Z,34.47
2023-05-17T17:34:26.967Z,34.50
2023-05-17T17:36:54.175Z,34.71
2023-05-17T17:39:20.667Z,35.91
2023-05-17T17:41:47.021Z,35.70
2023-05-17T17:44:13.353Z,35.67
2023-05-17T17:46:39.830Z,36.10
2023-05-17T17:49:06.285Z,36.56
2023-05-17T17:51:32.709Z,35.93
2023-05-17T17:53:59.188Z,36.03
2023-05-17T17:56:26.153Z,36.13
2023-05-17T17:58:55.997Z,35.56
2023-05-17T18:01:23.186Z,35.54
2023-05-17T18:03:49.620Z,35.78
2023-05-17T18:06:16.098Z,35.65
2023-05-17T18:08:42.594Z,36.33
2023-05-17T18:11:09.018Z,37.04
2023-05-17T18:13:35.622Z,37.49
2023-05-17T18:16:02.353Z,38.35
2023-05-17T18:18:28.773Z,38.42
2023-05-17T18:20:55.436Z,39.27
2023-05-17T18:23:21.810Z,40.32
2023-05-17T18:25:50.487Z,41.16
2023-05-17T18:28:19.689Z,41.99
2023-05-17T18:30:50.563Z,42.66
2023-05-17T18:33:16.953Z,43.30
2023-05-17T18:35:44.142Z,43.97
2023-05-17T18:38:10.625Z,44.20
2023-05-17T18:40:37.027Z,44.80
2023-05-17T18:43:03.391Z,45.41
2023-05-17T18:45:31.694Z,45.22
2023-05-17T18:47:58.060Z,46.05
2023-05-17T18:50:24.454Z,46.62
2023-05-17T18:52:50.809Z,47.45
2023-05-17T18:55:17.159Z,48.13
2023-05-17T18:57:46.449Z,48.62
2023-05-17T19:00:13.574Z,49.53
2023-05-17T19:02:40.579Z,50.37
2023-05-17T19:05:07.519Z,51.08
2023-05-17T19:07:33.984Z,52.06
2023-05-17T19:10:00.421Z,52.69
2023-05-17T19:12:26.801Z,53.32
2023-05-17T19:14:53.141Z,54.06
2023-05-17T19:17:19.643Z,53.36
2023-05-17T19:19:46.107Z,53.34
2023-05-17T19:22:12.874Z,53.29
2023-05-17T19:24:39.419Z,54.06
2023-05-17T19:27:05.927Z,54.38
2023-05-17T19:29:32.999Z,54.10
2023-05-17T19:31:59.344Z,54.40
2023-05-17T19:34:25.829Z,55.21
2023-05-17T19:36:52.207Z,55.91
2023-05-17T19:39:19.453Z,55.27
2023-05-17T19:41:45.928Z,55.88
2023-05-17T19:44:12.308Z,55.94
2023-05-17T19:46:38.749Z,55.68
2023-05-17T19:49:07.607Z,56.13
2023-05-17T19:51:34.038Z,56.57
2023-05-17T19:54:00.433Z,56.10
2023-05-17T19:56:26.975Z,56.06
2023-05-17T19:58:54.037Z,56.43
2023-05-17T20:01:21.617Z,57.34
2023-05-17T20:03:48.257Z,57.98
2023-05-17T20:06:14.962Z,58.06
2023-05-17T20:08:42.305Z,57.78
2023-05-17T20:11:08.699Z,58.62
2023-05-17T20:13:39.904Z,61.02
2023-05-17T20:16:12.682Z,58.31
2023-05-17T20:18:42.663Z,58.29
2023-05-17T20:21:11.088Z,57.38
2023-05-17T20:23:37.481Z,57.77
2023-05-17T20:26:04.403Z,57.26
2023-05-17T20:28:30.838Z,56.81
2023-05-17T20:30:57.284Z,57.43
2023-05-17T20:33:26.536Z,56.93
2023-05-17T20:35:53.820Z,58.20
2023-05-17T20:38:20.599Z,58.11
2023-05-17T20:40:47.225Z,59.04
2023-05-17T20:43:14.402Z,59.11
2023-05-17T20:45:40.857Z,60.05
2023-05-17T20:48:07.314Z,59.78
2023-05-17T20:50:33.841Z,59.67
2023-05-17T20:53:00.418Z,59.20
2023-05-17T20:55:26.821Z,61.09
2023-05-17T20:57:53.297Z,59.64
2023-05-17T21:00:20.775Z,60.49
2023-05-17T21:02:47.284Z,61.30
2023-05-17T21:05:13.798Z,61.30
2023-05-17T21:07:40.266Z,62.04
2023-05-17T21:10:08.172Z,63.42
2023-05-17T21:12:35.475Z,63.17
2023-05-17T21:15:15.980Z,63.18
2023-05-17T21:17:43.635Z,63.43
2023-05-17T21:20:10.686Z,65.10
2023-05-17T21:22:37.592Z,64.69
2023-05-17T21:25:04.610Z,63.27
2023-05-17T21:27:31.113Z,63.79
2023-05-17T21:29:57.591Z,63.88
2023-05-17T21:32:24.041Z,62.44
2023-05-17T21:34:52.155Z,62.45
2023-05-17T21:37:19.332Z,62.85
2023-05-17T21:39:45.972Z,62.95
2023-05-17T21:42:12.323Z,62.90
2023-05-17T21:44:38.696Z,64.58
2023-05-17T21:47:05.095Z,65.01
2023-05-17T21:49:31.544Z,64.90
2023-05-17T21:51:57.944Z,66.22
2023-05-17T21:54:24.912Z,66.82
2023-05-17T21:56:51.719Z,67.33
2023-05-17T21:59:18.100Z,67.09
2023-05-17T22:01:44.522Z,67.95
2023-05-17T22:04:11.102Z,67.67
2023-05-17T22:06:37.621Z,68.11
2023-05-17T22:09:05.981Z,67.48
2023-05-17T22:11:32.709Z,66.38
2023-05-17T22:13:59.121Z,66.80
2023-05-17T22:16:25.799Z,67.65
2023-05-17T22:18:52.460Z,66.49
2023-05-17T22:21:19.268Z,67.01
2023-05-17T22:23:45.903Z,66.97
2023-05-17T22:26:12.359Z,68.10
2023-05-17T22:28:38.689Z,68.50
2023-05-17T22:31:07.407Z,70.11
2023-05-17T22:33:35.523Z,71.23
2023-05-17T22:36:03.548Z,73.11
2023-05-17T22:38:29.899Z,73.57
2023-05-17T22:40:56.352Z,74.04
2023-05-17T22:43:22.829Z,73.67
2023-05-17T22:45:49.912Z,72.94
2023-05-17T22:48:16.309Z,72.75
2023-05-17T22:50:42.692Z,73.21
2023-05-17T22:53:11.156Z,74.67
2023-05-17T22:55:37.602Z,74.58
2023-05-17T22:58:03.974Z,74.28
2023-05-17T23:00:30.375Z,74.35
2023-05-17T23:02:56.952Z,74.28
2023-05-17T23:05:23.428Z,74.36
2023-05-17T23:07:49.772Z,75.20
2023-05-17T23:10:16.153Z,75.11
2023-05-17T23:12:42.541Z,74.69
2023-05-17T23:15:09.410Z,74.14
2023-05-17T23:17:36.426Z,74.50
2023-05-17T23:20:09.668Z,74.21
2023-05-17T23:22:36.798Z,74.52
2023-05-17T23:25:03.323Z,74.80
2023-05-17T23:27:30.706Z,74.93
2023-05-17T23:29:57.361Z,75.82
2023-05-17T23:32:24.162Z,75.25
2023-05-17T23:34:50.727Z,74.64
2023-05-17T23:37:17.193Z,74.34
2023-05-17T23:39:43.580Z,74.69
2023-05-17T23:42:10.259Z,73.91
2023-05-17T23:44:37.801Z,74.64
2023-05-17T23:47:04.781Z,74.55
2023-05-17T23:49:31.760Z,73.41
2023-05-17T23:51:58.188Z,74.18
2023-05-17T23:54:24.677Z,74.25
2023-05-17T23:56:51.055Z,73.12
2023-05-17T23:59:17.437Z,73.73
